Terminal Aerodrome Forecast
Issued by NWS Bismarck, ND

Home | Current Version | Previous Version | Text Only | Print | Product List | Glossary On
Versions: 1 2 3 4 5 6 7 8 9 10 11 12 13 14 15 16 17 18 19 20 21 22 23 24
042
FTUS43 KBIS 110138 AAB
TAFBIS
TAF AMD
KBIS 110138Z 1102/1124 10012KT 6SM -SN OVC025
     FM110500 07010KT 1SM -SN OVC030
     FM110900 06006KT 3SM -SN OVC015
     FM111200 05006KT P6SM BKN020
     FM111700 32005KT P6SM BKN035
     FM112300 27006KT P6SM SCT150=

USA.gov is the U.S. government's official web portal to all federal, state and local government web resources and services.